createdAt,value
2019-02-26T00:01:30.861Z,7.10
2019-02-26T00:06:25.493Z,6.90
2019-02-26T00:11:18.757Z,6.90
2019-02-26T00:16:14.946Z,6.90
2019-02-26T00:21:06.442Z,7.00
2019-02-26T00:25:59.427Z,7.00
2019-02-26T00:30:55.031Z,6.90
2019-02-26T00:35:50.177Z,6.80
2019-02-26T00:40:43.252Z,6.70
2019-02-26T00:45:38.900Z,6.60
2019-02-26T00:50:34.510Z,6.50
2019-02-26T00:55:29.334Z,6.50
2019-02-26T01:00:20.675Z,6.40
2019-02-26T01:05:15.812Z,6.40
2019-02-26T01:10:11.626Z,6.30
2019-02-26T01:15:09.355Z,6.40
2019-02-26T01:20:05.349Z,6.30
2019-02-26T01:24:58.432Z,6.20
2019-02-26T01:29:53.576Z,6.20
2019-02-26T01:34:47.837Z,6.10
2019-02-26T01:39:42.974Z,6.10
2019-02-26T01:44:38.062Z,6.00
2019-02-26T01:49:30.587Z,6.00
2019-02-26T01:54:23.427Z,6.10
2019-02-26T01:59:19.004Z,6.10
2019-02-26T02:04:12.878Z,6.00
2019-02-26T02:09:09.315Z,5.90
2019-02-26T02:14:02.065Z,5.90
2019-02-26T02:18:58.208Z,5.80
2019-02-26T02:23:52.859Z,5.70
2019-02-26T02:28:45.731Z,5.80
2019-02-26T02:33:38.659Z,5.70
2019-02-26T02:38:31.566Z,5.70
2019-02-26T02:43:26.321Z,5.70
2019-02-26T02:48:19.235Z,5.70
2019-02-26T02:53:12.598Z,5.70
2019-02-26T02:58:05.485Z,5.60
2019-02-26T03:02:58.439Z,5.60
2019-02-26T03:07:53.557Z,5.50
2019-02-26T03:12:48.587Z,5.50
2019-02-26T03:17:42.759Z,5.40
2019-02-26T03:22:38.547Z,5.30
2019-02-26T03:27:31.202Z,5.20
2019-02-26T03:32:25.307Z,5.10
2019-02-26T03:37:18.220Z,5.10
2019-02-26T03:42:14.147Z,5.00
2019-02-26T03:47:06.211Z,5.00
2019-02-26T03:52:00.165Z,5.00
2019-02-26T03:56:53.568Z,4.90
2019-02-26T04:01:46.507Z,4.90
2019-02-26T04:06:41.230Z,4.90
2019-02-26T04:11:34.262Z,4.80
2019-02-26T04:16:27.174Z,4.80
2019-02-26T04:21:21.109Z,4.80
2019-02-26T04:26:52.311Z,4.80
2019-02-26T04:32:37.801Z,4.80
2019-02-26T04:38:38.424Z,4.80
2019-02-26T04:44:41.416Z,4.70
2019-02-26T04:49:36.738Z,4.70
2019-02-26T04:54:31.196Z,4.60
2019-02-26T04:59:24.614Z,4.60
2019-02-26T05:04:17.530Z,4.70
2019-02-26T05:09:10.616Z,4.70
2019-02-26T05:14:03.647Z,4.70
2019-02-26T05:18:58.513Z,4.80
2019-02-26T05:23:52.418Z,4.70
2019-02-26T05:28:48.833Z,4.70
2019-02-26T05:33:41.006Z,4.70
2019-02-26T05:38:34.930Z,4.70
2019-02-26T05:43:30.681Z,4.70
2019-02-26T05:48:25.777Z,4.60
2019-02-26T05:53:18.275Z,4.60
2019-02-26T05:58:15.179Z,4.60
2019-02-26T06:03:07.205Z,4.50
2019-02-26T06:08:00.832Z,4.50
2019-02-26T06:12:53.693Z,4.40
2019-02-26T06:17:48.241Z,4.30
2019-02-26T06:22:42.580Z,4.20
2019-02-26T06:27:37.736Z,4.30
2019-02-26T06:32:34.746Z,4.30
2019-02-26T06:37:29.097Z,4.20
2019-02-26T06:42:22.295Z,4.30
2019-02-26T06:47:15.219Z,4.30
2019-02-26T06:52:08.438Z,4.40
2019-02-26T06:57:02.918Z,4.60
2019-02-26T07:01:56.114Z,4.70
2019-02-26T07:06:49.098Z,4.90
2019-02-26T07:11:42.929Z,5.10
2019-02-26T07:16:39.821Z,5.30
2019-02-26T07:21:30.635Z,5.50
2019-02-26T07:26:23.640Z,5.60
2019-02-26T07:31:16.582Z,6.10
2019-02-26T07:36:09.515Z,7.80
2019-02-26T07:41:03.794Z,7.80
2019-02-26T07:45:57.277Z,8.30
2019-02-26T07:50:50.785Z,9.20
2019-02-26T07:55:43.907Z,9.80
2019-02-26T08:00:37.705Z,10.30
2019-02-26T08:05:31.615Z,11.00
2019-02-26T08:10:24.612Z,11.40
2019-02-26T08:15:17.607Z,11.50
2019-02-26T08:20:14.301Z,12.20
2019-02-26T08:25:07.418Z,12.90
2019-02-26T08:30:00.887Z,13.30
2019-02-26T08:34:56.801Z,13.80
2019-02-26T08:39:52.484Z,14.00
2019-02-26T08:44:51.084Z,14.60
2019-02-26T08:49:47.450Z,14.40
2019-02-26T08:54:44.236Z,14.70
2019-02-26T08:59:42.264Z,15.10
2019-02-26T09:04:40.819Z,16.10
2019-02-26T09:09:36.626Z,16.40
2019-02-26T09:14:37.303Z,16.10
2019-02-26T09:19:33.175Z,16.50
2019-02-26T09:24:30.798Z,16.50
2019-02-26T09:29:27.055Z,16.70
2019-02-26T09:34:25.960Z,17.60
2019-02-26T09:39:20.781Z,18.20
2019-02-26T09:44:19.657Z,17.40
2019-02-26T09:49:15.642Z,17.40
2019-02-26T09:54:15.292Z,16.30
2019-02-26T09:59:14.799Z,16.50
2019-02-26T10:04:10.784Z,15.90
2019-02-26T10:09:10.690Z,16.00
2019-02-26T10:14:07.807Z,15.90
2019-02-26T10:19:03.606Z,15.90
2019-02-26T10:24:01.769Z,15.70
2019-02-26T10:28:59.013Z,15.90
2019-02-26T10:33:54.689Z,15.70
2019-02-26T10:38:55.080Z,15.40
2019-02-26T10:43:51.601Z,15.50
2019-02-26T10:48:48.168Z,15.60
2019-02-26T10:53:45.116Z,15.50
2019-02-26T10:58:41.076Z,15.30
2019-02-26T11:03:40.874Z,15.30
2019-02-26T11:08:35.130Z,15.50
2019-02-26T11:13:31.525Z,15.70
2019-02-26T11:18:26.042Z,15.70
2019-02-26T11:23:30.289Z,15.80
2019-02-26T11:28:20.005Z,15.90
2019-02-26T11:33:16.017Z,15.90
2019-02-26T11:38:12.350Z,15.90
2019-02-26T11:43:12.360Z,16.20
2019-02-26T11:48:08.776Z,16.60
2019-02-26T11:53:04.067Z,16.50
2019-02-26T11:58:00.098Z,16.70
2019-02-26T12:02:56.001Z,17.10
2019-02-26T12:07:53.705Z,17.10
2019-02-26T12:12:51.553Z,17.50
2019-02-26T12:17:51.631Z,17.80
2019-02-26T12:22:49.656Z,17.60
2019-02-26T12:27:46.147Z,17.90
2019-02-26T12:32:45.501Z,18.30
2019-02-26T12:37:41.296Z,18.30
2019-02-26T12:42:37.336Z,18.70
2019-02-26T12:47:33.181Z,19.00
2019-02-26T12:52:30.411Z,19.00
2019-02-26T12:57:28.886Z,19.20
2019-02-26T13:02:25.636Z,19.40
2019-02-26T13:07:20.545Z,19.60
2019-02-26T13:12:20.567Z,19.70
2019-02-26T13:17:17.253Z,19.90
2019-02-26T13:22:17.205Z,20.00
2019-02-26T13:27:10.601Z,20.10
2019-02-26T13:32:09.029Z,20.10
2019-02-26T13:37:05.595Z,20.10
2019-02-26T13:47:00.023Z,20.00
2019-02-26T13:51:56.575Z,19.50
2019-02-26T13:56:52.529Z,19.40
2019-02-26T14:01:48.802Z,19.90
2019-02-26T14:06:44.819Z,20.00
2019-02-26T14:11:41.736Z,20.10
2019-02-26T14:16:38.081Z,20.30
2019-02-26T14:21:33.898Z,20.20
2019-02-26T14:26:29.607Z,20.00
2019-02-26T14:31:26.467Z,20.00
2019-02-26T14:36:22.220Z,19.90
2019-02-26T14:41:17.792Z,19.90
2019-02-26T14:46:17.089Z,19.80
2019-02-26T14:51:13.277Z,19.00
2019-02-26T14:56:09.555Z,19.50
2019-02-26T15:01:06.570Z,19.20
2019-02-26T15:06:02.953Z,19.20
2019-02-26T15:11:00.029Z,19.10
2019-02-26T15:15:56.743Z,19.20
2019-02-26T15:20:53.268Z,19.30
2019-02-26T15:25:49.587Z,19.20
2019-02-26T15:30:48.070Z,19.20
2019-02-26T15:35:44.736Z,19.10
2019-02-26T15:40:41.743Z,19.10
2019-02-26T15:45:34.857Z,19.00
2019-02-26T15:50:27.954Z,18.90
2019-02-26T15:55:21.052Z,18.90
2019-02-26T16:00:19.199Z,18.60
2019-02-26T16:05:12.395Z,18.50
2019-02-26T16:10:07.423Z,18.50
2019-02-26T16:15:00.548Z,18.50
2019-02-26T16:19:53.673Z,18.40
2019-02-26T16:24:46.953Z,18.30
2019-02-26T16:29:40.363Z,18.20
2019-02-26T16:34:35.087Z,18.00
2019-02-26T16:39:28.374Z,17.90
2019-02-26T16:44:22.578Z,17.70
2019-02-26T16:49:16.668Z,17.50
2019-02-26T16:54:09.665Z,17.30
2019-02-26T16:59:07.608Z,17.10
2019-02-26T17:03:59.772Z,16.90
2019-02-26T17:08:53.115Z,16.70
2019-02-26T17:13:46.363Z,16.50
2019-02-26T17:18:40.574Z,16.30
2019-02-26T17:23:34.688Z,16.10
2019-02-26T17:28:28.352Z,15.90
2019-02-26T17:33:21.733Z,15.70
2019-02-26T17:38:15.529Z,15.50
2019-02-26T17:43:10.880Z,15.30
2019-02-26T17:48:04.480Z,15.00
2019-02-26T17:52:57.747Z,14.90
2019-02-26T17:57:51.265Z,14.70
2019-02-26T18:02:44.424Z,14.50
2019-02-26T18:07:42.596Z,14.40
2019-02-26T18:12:36.497Z,14.30
2019-02-26T18:17:29.828Z,14.10
2019-02-26T18:22:23.030Z,13.90
2019-02-26T18:27:15.999Z,13.80
2019-02-26T18:32:11.057Z,13.60
2019-02-26T18:37:04.182Z,13.40
2019-02-26T18:41:59.140Z,13.10
2019-02-26T18:46:52.499Z,12.90
2019-02-26T18:51:45.455Z,12.70
2019-02-26T18:56:39.457Z,12.50
2019-02-26T19:01:33.198Z,12.40
2019-02-26T19:06:27.468Z,12.20
2019-02-26T19:11:20.889Z,12.00
2019-02-26T19:16:14.055Z,11.90
2019-02-26T19:21:07.333Z,11.80
2019-02-26T19:26:00.412Z,11.80
2019-02-26T19:30:53.586Z,11.80
2019-02-26T19:35:46.880Z,11.70
2019-02-26T19:40:43.105Z,11.60
2019-02-26T19:45:36.182Z,11.60
2019-02-26T19:50:29.448Z,11.50
2019-02-26T19:55:26.386Z,11.50
2019-02-26T20:00:19.859Z,11.40
2019-02-26T20:05:13.741Z,11.40
2019-02-26T20:10:08.157Z,11.50
2019-02-26T20:15:01.300Z,11.50
2019-02-26T20:19:54.617Z,11.40
2019-02-26T20:24:47.921Z,11.40
2019-02-26T20:29:40.975Z,11.40
2019-02-26T20:34:34.023Z,11.30
2019-02-26T20:39:27.247Z,11.20
2019-02-26T20:44:20.367Z,10.90
2019-02-26T20:49:14.269Z,10.60
2019-02-26T20:54:11.430Z,10.30
2019-02-26T20:59:02.403Z,10.20
2019-02-26T21:03:55.465Z,10.00
2019-02-26T21:08:48.497Z,9.80
2019-02-26T21:13:41.496Z,9.70
2019-02-26T21:18:34.587Z,9.70
2019-02-26T21:23:28.338Z,9.60
2019-02-26T21:28:21.369Z,9.80
2019-02-26T21:33:14.383Z,9.90
2019-02-26T21:38:07.533Z,9.80
2019-02-26T21:43:02.438Z,9.80
2019-02-26T21:47:55.329Z,9.90
2019-02-26T21:53:03.759Z,9.80
2019-02-26T21:57:43.050Z,9.70
2019-02-26T22:02:36.159Z,9.60
2019-02-26T22:07:29.301Z,9.40
2019-02-26T22:12:24.203Z,9.30
2019-02-26T22:17:17.151Z,9.30
2019-02-26T22:22:10.121Z,9.30
2019-02-26T22:27:03.050Z,9.10
2019-02-26T22:31:56.088Z,9.10
2019-02-26T22:36:48.988Z,9.10
2019-02-26T22:41:41.885Z,9.20
2019-02-26T22:46:34.755Z,9.20
2019-02-26T22:51:28.271Z,9.20
2019-02-26T22:56:21.895Z,9.20
2019-02-26T23:01:42.186Z,9.20
2019-02-26T23:06:35.255Z,9.20
2019-02-26T23:11:31.532Z,9.10
2019-02-26T23:16:23.647Z,9.20
2019-02-26T23:21:17.251Z,9.20
2019-02-26T23:26:10.447Z,9.10
2019-02-26T23:31:05.055Z,8.90
2019-02-26T23:35:58.005Z,8.70
2019-02-26T23:40:50.990Z,8.60
2019-02-26T23:45:43.903Z,8.60
2019-02-26T23:50:37.136Z,8.50
2019-02-26T23:55:30.044Z,8.50
